sensor_id;sensor_type;location;lat;lon;timestamp;pressure;altitude;pressure_sealevel;temperature;humidity
77823;BME280;67013;49.730;17.292;2023-04-01T00:01:37;96783.77;;;8.91;74.13
77823;BME280;67013;49.730;17.292;2023-04-01T00:04:07;96781.83;;;8.90;74.03
77823;BME280;67013;49.730;17.292;2023-04-01T00:06:36;96780.71;;;8.91;74.07
77823;BME280;67013;49.730;17.292;2023-04-01T00:09:06;96783.27;;;8.93;74.01
77823;BME280;67013;49.730;17.292;2023-04-01T00:11:35;96771.14;;;8.94;73.85
77823;BME280;67013;49.730;17.292;2023-04-01T00:14:04;96762.84;;;8.96;73.75
77823;BME280;67013;49.730;17.292;2023-04-01T00:16:34;96758.20;;;8.96;73.95
77823;BME280;67013;49.730;17.292;2023-04-01T00:19:04;96751.77;;;8.94;74.05
77823;BME280;67013;49.730;17.292;2023-04-01T00:21:33;96749.45;;;8.91;73.97
77823;BME280;67013;49.730;17.292;2023-04-01T00:24:03;96752.08;;;8.89;74.08
77823;BME280;67013;49.730;17.292;2023-04-01T00:26:33;96746.70;;;8.87;74.61
77823;BME280;67013;49.730;17.292;2023-04-01T00:29:03;96749.38;;;8.90;74.15
77823;BME280;67013;49.730;17.292;2023-04-01T00:31:33;96746.86;;;8.93;74.13
77823;BME280;67013;49.730;17.292;2023-04-01T00:34:03;96751.00;;;8.95;74.04
77823;BME280;67013;49.730;17.292;2023-04-01T00:36:32;96748.39;;;8.97;73.85
77823;BME280;67013;49.730;17.292;2023-04-01T00:39:02;96752.11;;;8.96;73.70
77823;BME280;67013;49.730;17.292;2023-04-01T00:41:31;96754.42;;;8.92;73.88
77823;BME280;67013;49.730;17.292;2023-04-01T00:44:21;96757.90;;;8.88;74.18
77823;BME280;67013;49.730;17.292;2023-04-01T00:46:51;96759.13;;;8.88;73.99
77823;BME280;67013;49.730;17.292;2023-04-01T00:49:23;96749.59;;;8.88;73.86
77823;BME280;67013;49.730;17.292;2023-04-01T00:51:55;96748.27;;;8.89;73.83
77823;BME280;67013;49.730;17.292;2023-04-01T00:54:27;96746.44;;;8.88;73.81
77823;BME280;67013;49.730;17.292;2023-04-01T00:57:02;96743.86;;;8.88;73.90
77823;BME280;67013;49.730;17.292;2023-04-01T00:59:35;96743.86;;;8.86;73.73
77823;BME280;67013;49.730;17.292;2023-04-01T01:02:10;96750.44;;;8.84;73.69
77823;BME280;67013;49.730;17.292;2023-04-01T01:04:40;96754.07;;;8.84;73.62
77823;BME280;67013;49.730;17.292;2023-04-01T01:07:20;96754.48;;;8.83;73.48
77823;BME280;67013;49.730;17.292;2023-04-01T01:09:58;96748.71;;;8.82;73.50
77823;BME280;67013;49.730;17.292;2023-04-01T01:12:37;96751.45;;;8.77;73.75
77823;BME280;67013;49.730;17.292;2023-04-01T01:15:15;96757.44;;;8.72;73.81
77823;BME280;67013;49.730;17.292;2023-04-01T01:17:57;96756.08;;;8.68;73.93
77823;BME280;67013;49.730;17.292;2023-04-01T01:24:18;96757.98;;;8.66;74.02
77823;BME280;67013;49.730;17.292;2023-04-01T01:26:58;96763.56;;;8.66;74.12
77823;BME280;67013;49.730;17.292;2023-04-01T01:29:44;96764.80;;;8.64;74.13
77823;BME280;67013;49.730;17.292;2023-04-01T01:32:28;96768.92;;;8.64;74.02
77823;BME280;67013;49.730;17.292;2023-04-01T01:35:12;96766.80;;;8.65;74.22
77823;BME280;67013;49.730;17.292;2023-04-01T01:37:47;96764.80;;;8.64;74.34
77823;BME280;67013;49.730;17.292;2023-04-01T01:40:19;96764.39;;;8.63;74.37
77823;BME280;67013;49.730;17.292;2023-04-01T01:42:51;96765.54;;;8.61;74.38
77823;BME280;67013;49.730;17.292;2023-04-01T01:45:25;96763.42;;;8.62;74.35
77823;BME280;67013;49.730;17.292;2023-04-01T01:47:56;96767.83;;;8.65;74.25
77823;BME280;67013;49.730;17.292;2023-04-01T01:50:27;96763.21;;;8.66;74.27
77823;BME280;67013;49.730;17.292;2023-04-01T01:53:08;96767.64;;;8.67;74.19
77823;BME280;67013;49.730;17.292;2023-04-01T01:55:39;96770.60;;;8.67;74.31
77823;BME280;67013;49.730;17.292;2023-04-01T01:58:13;96774.87;;;8.67;74.24
77823;BME280;67013;49.730;17.292;2023-04-01T02:00:48;96778.35;;;8.69;74.17
77823;BME280;67013;49.730;17.292;2023-04-01T02:03:21;96775.39;;;8.71;74.12
77823;BME280;67013;49.730;17.292;2023-04-01T02:05:53;96776.02;;;8.72;74.06
77823;BME280;67013;49.730;17.292;2023-04-01T02:08:28;96777.41;;;8.70;74.09
77823;BME280;67013;49.730;17.292;2023-04-01T02:11:03;96775.83;;;8.68;74.19
77823;BME280;67013;49.730;17.292;2023-04-01T02:13:40;96774.32;;;8.68;74.10
77823;BME280;67013;49.730;17.292;2023-04-01T02:16:15;96774.48;;;8.68;74.21
77823;BME280;67013;49.730;17.292;2023-04-01T02:18:49;96775.64;;;8.70;73.98
77823;BME280;67013;49.730;17.292;2023-04-01T02:21:23;96775.64;;;8.72;74.06
77823;BME280;67013;49.730;17.292;2023-04-01T02:23:54;96769.42;;;8.74;73.87
77823;BME280;67013;49.730;17.292;2023-04-01T02:26:26;96764.70;;;8.76;73.75
77823;BME280;67013;49.730;17.292;2023-04-01T02:28:56;96755.85;;;8.78;73.49
77823;BME280;67013;49.730;17.292;2023-04-01T02:31:29;96750.48;;;8.80;73.36
77823;BME280;67013;49.730;17.292;2023-04-01T02:33:59;96754.05;;;8.81;73.35
77823;BME280;67013;49.730;17.292;2023-04-01T02:36:29;96749.84;;;8.79;73.38
77823;BME280;67013;49.730;17.292;2023-04-01T02:39:00;96750.92;;;8.82;73.31
77823;BME280;67013;49.730;17.292;2023-04-01T02:41:31;96752.23;;;8.86;73.18
77823;BME280;67013;49.730;17.292;2023-04-01T02:44:00;96752.67;;;8.88;72.92
77823;BME280;67013;49.730;17.292;2023-04-01T02:46:31;96751.66;;;8.90;73.04
77823;BME280;67013;49.730;17.292;2023-04-01T02:49:00;96749.55;;;8.90;73.04
77823;BME280;67013;49.730;17.292;2023-04-01T02:51:30;96751.52;;;8.88;73.00
77823;BME280;67013;49.730;17.292;2023-04-01T02:53:59;96751.85;;;8.86;72.99
77823;BME280;67013;49.730;17.292;2023-04-01T02:56:29;96752.31;;;8.84;72.99
77823;BME280;67013;49.730;17.292;2023-04-01T02:58:58;96753.96;;;8.83;72.90
77823;BME280;67013;49.730;17.292;2023-04-01T03:01:28;96759.81;;;8.82;72.82
77823;BME280;67013;49.730;17.292;2023-04-01T03:03:58;96761.77;;;8.82;72.90
77823;BME280;67013;49.730;17.292;2023-04-01T03:06:27;96763.35;;;8.83;72.85
77823;BME280;67013;49.730;17.292;2023-04-01T03:08:57;96763.02;;;8.85;72.80
77823;BME280;67013;49.730;17.292;2023-04-01T03:11:26;96751.61;;;8.87;72.78
77823;BME280;67013;49.730;17.292;2023-04-01T03:13:56;96750.54;;;8.87;72.75
77823;BME280;67013;49.730;17.292;2023-04-01T03:16:25;96748.68;;;8.87;72.68
77823;BME280;67013;49.730;17.292;2023-04-01T03:18:55;96751.85;;;8.86;72.70
77823;BME280;67013;49.730;17.292;2023-04-01T03:21:27;96750.23;;;8.84;72.74
77823;BME280;67013;49.730;17.292;2023-04-01T03:23:56;96748.55;;;8.84;72.88
77823;BME280;67013;49.730;17.292;2023-04-01T03:26:26;96748.35;;;8.84;73.02
77823;BME280;67013;49.730;17.292;2023-04-01T03:28:56;96748.54;;;8.84;73.00
77823;BME280;67013;49.730;17.292;2023-04-01T03:31:25;96749.83;;;8.83;72.93
77823;BME280;67013;49.730;17.292;2023-04-01T03:33:55;96749.29;;;8.82;72.96
77823;BME280;67013;49.730;17.292;2023-04-01T03:36:24;96753.61;;;8.80;73.14
77823;BME280;67013;49.730;17.292;2023-04-01T03:38:54;96751.74;;;8.77;73.28
77823;BME280;67013;49.730;17.292;2023-04-01T03:41:23;96746.95;;;8.75;73.47
77823;BME280;67013;49.730;17.292;2023-04-01T03:43:54;96752.05;;;8.72;73.53
77823;BME280;67013;49.730;17.292;2023-04-01T03:46:24;96754.27;;;8.71;73.77
77823;BME280;67013;49.730;17.292;2023-04-01T03:48:53;96755.28;;;8.71;73.85
77823;BME280;67013;49.730;17.292;2023-04-01T03:51:22;96757.44;;;8.70;73.93
77823;BME280;67013;49.730;17.292;2023-04-01T03:53:52;96760.77;;;8.70;73.98
77823;BME280;67013;49.730;17.292;2023-04-01T03:56:22;96761.73;;;8.69;74.08
77823;BME280;67013;49.730;17.292;2023-04-01T03:58:51;96758.31;;;8.67;74.19
77823;BME280;67013;49.730;17.292;2023-04-01T04:01:22;96760.96;;;8.66;74.32
77823;BME280;67013;49.730;17.292;2023-04-01T04:03:52;96763.62;;;8.65;74.40
77823;BME280;67013;49.730;17.292;2023-04-01T04:06:21;96764.14;;;8.65;74.42
77823;BME280;67013;49.730;17.292;2023-04-01T04:08:51;96767.48;;;8.65;74.44
77823;BME280;67013;49.730;17.292;2023-04-01T04:11:22;96764.09;;;8.64;74.44
77823;BME280;67013;49.730;17.292;2023-04-01T04:13:51;96765.84;;;8.64;74.63
77823;BME280;67013;49.730;17.292;2023-04-01T04:16:21;96768.36;;;8.65;74.50
77823;BME280;67013;49.730;17.292;2023-04-01T04:18:50;96771.23;;;8.64;74.40
77823;BME280;67013;49.730;17.292;2023-04-01T04:21:20;96766.55;;;8.65;74.57
77823;BME280;67013;49.730;17.292;2023-04-01T04:23:49;96766.92;;;8.67;74.46
77823;BME280;67013;49.730;17.292;2023-04-01T04:26:20;96770.11;;;8.68;74.40
77823;BME280;67013;49.730;17.292;2023-04-01T04:28:49;96765.45;;;8.70;74.28
77823;BME280;67013;49.730;17.292;2023-04-01T04:31:21;96767.73;;;8.72;74.43
77823;BME280;67013;49.730;17.292;2023-04-01T04:33:51;96767.64;;;8.74;74.48
77823;BME280;67013;49.730;17.292;2023-04-01T04:36:22;96767.98;;;8.75;74.24
77823;BME280;67013;49.730;17.292;2023-04-01T04:38:51;96768.14;;;8.75;74.16
77823;BME280;67013;49.730;17.292;2023-04-01T04:41:21;96766.91;;;8.75;74.11
77823;BME280;67013;49.730;17.292;2023-04-01T04:43:52;96769.45;;;8.77;74.23
77823;BME280;67013;49.730;17.292;2023-04-01T04:46:22;96773.60;;;8.81;74.03
77823;BME280;67013;49.730;17.292;2023-04-01T04:48:52;96771.78;;;8.84;73.71
77823;BME280;67013;49.730;17.292;2023-04-01T04:51:22;96770.02;;;8.86;73.62
77823;BME280;67013;49.730;17.292;2023-04-01T04:53:52;96771.73;;;8.90;73.72
77823;BME280;67013;49.730;17.292;2023-04-01T04:56:22;96764.91;;;8.93;73.52
77823;BME280;67013;49.730;17.292;2023-04-01T04:58:53;96766.77;;;8.97;73.69
77823;BME280;67013;49.730;17.292;2023-04-01T05:01:23;96768.86;;;8.99;73.43
77823;BME280;67013;49.730;17.292;2023-04-01T05:03:53;96769.96;;;8.98;73.28
77823;BME280;67013;49.730;17.292;2023-04-01T05:06:22;96773.23;;;8.97;73.22
77823;BME280;67013;49.730;17.292;2023-04-01T05:08:53;96774.19;;;8.96;73.18
77823;BME280;67013;49.730;17.292;2023-04-01T05:11:23;96767.04;;;8.96;73.07
77823;BME280;67013;49.730;17.292;2023-04-01T05:13:54;96770.05;;;8.97;72.85
77823;BME280;67013;49.730;17.292;2023-04-01T05:16:23;96772.13;;;8.97;72.82
77823;BME280;67013;49.730;17.292;2023-04-01T05:18:53;96777.25;;;8.94;72.76
77823;BME280;67013;49.730;17.292;2023-04-01T05:21:22;96780.29;;;8.93;72.96
77823;BME280;67013;49.730;17.292;2023-04-01T05:23:52;96775.95;;;8.91;72.92
77823;BME280;67013;49.730;17.292;2023-04-01T05:26:21;96780.13;;;8.90;72.94
77823;BME280;67013;49.730;17.292;2023-04-01T05:28:51;96781.77;;;8.89;72.98
77823;BME280;67013;49.730;17.292;2023-04-01T05:31:20;96781.16;;;8.91;72.99
77823;BME280;67013;49.730;17.292;2023-04-01T05:33:52;96783.96;;;8.93;72.93
77823;BME280;67013;49.730;17.292;2023-04-01T05:36:22;96782.77;;;8.94;72.89
77823;BME280;67013;49.730;17.292;2023-04-01T05:38:51;96786.17;;;8.93;72.83
77823;BME280;67013;49.730;17.292;2023-04-01T05:41:22;96786.50;;;8.91;72.95
77823;BME280;67013;49.730;17.292;2023-04-01T05:43:51;96788.23;;;8.90;73.05
77823;BME280;67013;49.730;17.292;2023-04-01T05:46:20;96789.67;;;8.89;73.08
77823;BME280;67013;49.730;17.292;2023-04-01T05:48:50;96787.34;;;8.90;73.09
77823;BME280;67013;49.730;17.292;2023-04-01T05:51:19;96788.25;;;8.93;73.08
77823;BME280;67013;49.730;17.292;2023-04-01T05:53:49;96790.58;;;8.98;73.09
77823;BME280;67013;49.730;17.292;2023-04-01T05:56:19;96784.66;;;9.02;73.08
77823;BME280;67013;49.730;17.292;2023-04-01T05:58:52;96786.30;;;9.07;73.12
77823;BME280;67013;49.730;17.292;2023-04-01T06:01:23;96784.81;;;9.10;73.15
77823;BME280;67013;49.730;17.292;2023-04-01T06:03:52;96784.52;;;9.13;73.03
77823;BME280;67013;49.730;17.292;2023-04-01T06:06:25;96786.89;;;9.15;73.02
77823;BME280;67013;49.730;17.292;2023-04-01T06:08:57;96787.85;;;9.18;73.19
77823;BME280;67013;49.730;17.292;2023-04-01T06:11:37;96787.84;;;9.22;73.32
77823;BME280;67013;49.730;17.292;2023-04-01T06:14:21;96794.58;;;9.26;73.64
77823;BME280;67013;49.730;17.292;2023-04-01T06:17:04;96794.92;;;9.32;73.47
77823;BME280;67013;49.730;17.292;2023-04-01T06:19:42;96798.80;;;9.38;73.36
77823;BME280;67013;49.730;17.292;2023-04-01T06:22:34;96799.12;;;9.44;73.20
77823;BME280;67013;49.730;17.292;2023-04-01T06:25:27;96800.86;;;9.48;73.16
77823;BME280;67013;49.730;17.292;2023-04-01T06:28:13;96802.14;;;9.52;73.33
77823;BME280;67013;49.730;17.292;2023-04-01T06:30:55;96800.54;;;9.59;73.00
77823;BME280;67013;49.730;17.292;2023-04-01T06:33:48;96805.06;;;9.64;72.81
77823;BME280;67013;49.730;17.292;2023-04-01T06:36:48;96805.77;;;9.71;72.83
77823;BME280;67013;49.730;17.292;2023-04-01T06:39:29;96801.11;;;9.82;73.05
77823;BME280;67013;49.730;17.292;2023-04-01T06:42:17;96803.98;;;9.94;72.96
77823;BME280;67013;49.730;17.292;2023-04-01T06:45:01;96808.40;;;10.06;73.03
77823;BME280;67013;49.730;17.292;2023-04-01T06:47:41;96806.39;;;10.19;72.93
77823;BME280;67013;49.730;17.292;2023-04-01T06:50:24;96808.88;;;10.30;72.88
77823;BME280;67013;49.730;17.292;2023-04-01T06:53:03;96810.94;;;10.37;72.89
77823;BME280;67013;49.730;17.292;2023-04-01T06:55:38;96806.58;;;10.42;72.56
77823;BME280;67013;49.730;17.292;2023-04-01T06:58:16;96811.39;;;10.45;72.70
77823;BME280;67013;49.730;17.292;2023-04-01T07:00:51;96814.12;;;10.47;72.68
77823;BME280;67013;49.730;17.292;2023-04-01T07:03:26;96818.33;;;10.50;72.43
77823;BME280;67013;49.730;17.292;2023-04-01T07:06:04;96818.85;;;10.55;72.45
77823;BME280;67013;49.730;17.292;2023-04-01T07:08:36;96818.52;;;10.58;72.35
77823;BME280;67013;49.730;17.292;2023-04-01T07:11:08;96821.92;;;10.64;72.42
77823;BME280;67013;49.730;17.292;2023-04-01T07:13:39;96820.25;;;10.70;72.14
77823;BME280;67013;49.730;17.292;2023-04-01T07:16:15;96820.52;;;10.78;72.05
77823;BME280;67013;49.730;17.292;2023-04-01T07:18:49;96821.14;;;10.87;72.07
77823;BME280;67013;49.730;17.292;2023-04-01T07:21:29;96821.52;;;10.97;71.77
77823;BME280;67013;49.730;17.292;2023-04-01T07:24:04;96823.22;;;11.05;71.66
77823;BME280;67013;49.730;17.292;2023-04-01T07:26:35;96822.27;;;11.11;71.61
77823;BME280;67013;49.730;17.292;2023-04-01T07:29:08;96824.98;;;11.14;71.59
77823;BME280;67013;49.730;17.292;2023-04-01T07:31:51;96824.25;;;11.17;71.49
77823;BME280;67013;49.730;17.292;2023-04-01T07:34:27;96831.56;;;11.22;71.67
77823;BME280;67013;49.730;17.292;2023-04-01T07:37:02;96834.00;;;11.23;71.73
77823;BME280;67013;49.730;17.292;2023-04-01T07:39:42;96832.41;;;11.25;71.89
77823;BME280;67013;49.730;17.292;2023-04-01T07:42:21;96835.13;;;11.28;71.67
77823;BME280;67013;49.730;17.292;2023-04-01T07:44:58;96831.70;;;11.33;71.49
77823;BME280;67013;49.730;17.292;2023-04-01T07:47:38;96831.64;;;11.39;71.26
77823;BME280;67013;49.730;17.292;2023-04-01T07:50:18;96829.63;;;11.43;71.02
77823;BME280;67013;49.730;17.292;2023-04-01T07:53:01;96834.13;;;11.48;70.91
77823;BME280;67013;49.730;17.292;2023-04-01T07:55:42;96835.01;;;11.52;70.50
77823;BME280;67013;49.730;17.292;2023-04-01T07:58:19;96834.20;;;11.54;70.50
77823;BME280;67013;49.730;17.292;2023-04-01T08:00:58;96836.86;;;11.55;70.25
77823;BME280;67013;49.730;17.292;2023-04-01T08:03:42;96839.64;;;11.57;70.61
77823;BME280;67013;49.730;17.292;2023-04-01T08:06:23;96840.92;;;11.61;70.04
77823;BME280;67013;49.730;17.292;2023-04-01T08:09:02;96842.92;;;11.62;69.88
77823;BME280;67013;49.730;17.292;2023-04-01T08:11:43;96844.69;;;11.62;69.85
77823;BME280;67013;49.730;17.292;2023-04-01T08:14:24;96846.86;;;11.65;69.78
77823;BME280;67013;49.730;17.292;2023-04-01T08:17:03;96846.66;;;11.69;69.68
77823;BME280;67013;49.730;17.292;2023-04-01T08:19:43;96847.21;;;11.75;69.58
77823;BME280;67013;49.730;17.292;2023-04-01T08:22:23;96846.78;;;11.83;69.55
77823;BME280;67013;49.730;17.292;2023-04-01T08:24:57;96850.45;;;11.89;69.42
77823;BME280;67013;49.730;17.292;2023-04-01T08:27:36;96850.80;;;11.96;69.22
77823;BME280;67013;49.730;17.292;2023-04-01T08:30:18;96853.85;;;12.04;69.09
77823;BME280;67013;49.730;17.292;2023-04-01T08:32:51;96851.05;;;12.13;69.12
77823;BME280;67013;49.730;17.292;2023-04-01T08:35:28;96853.27;;;12.23;69.07
77823;BME280;67013;49.730;17.292;2023-04-01T08:38:05;96852.81;;;12.39;69.23
77823;BME280;67013;49.730;17.292;2023-04-01T08:40:55;96855.11;;;12.57;69.14
77823;BME280;67013;49.730;17.292;2023-04-01T08:43:46;96850.91;;;12.72;68.63
77823;BME280;67013;49.730;17.292;2023-04-01T08:49:34;96845.39;;;12.91;67.88
77823;BME280;67013;49.730;17.292;2023-04-01T08:52:22;96842.64;;;12.98;67.52
77823;BME280;67013;49.730;17.292;2023-04-01T08:55:10;96838.71;;;13.06;67.50
77823;BME280;67013;49.730;17.292;2023-04-01T08:57:59;96840.25;;;13.13;67.12
77823;BME280;67013;49.730;17.292;2023-04-01T09:00:33;96835.59;;;13.22;67.04
77823;BME280;67013;49.730;17.292;2023-04-01T09:03:34;96837.95;;;13.31;66.75
77823;BME280;67013;49.730;17.292;2023-04-01T09:06:25;96836.89;;;13.37;66.29
77823;BME280;67013;49.730;17.292;2023-04-01T09:09:12;96832.13;;;13.41;65.73
77823;BME280;67013;49.730;17.292;2023-04-01T09:18:17;96846.98;;;13.31;65.66
77823;BME280;67013;49.730;17.292;2023-04-01T09:21:11;96846.27;;;13.34;65.64
77823;BME280;67013;49.730;17.292;2023-04-01T09:27:02;96853.73;;;13.35;64.88
77823;BME280;67013;49.730;17.292;2023-04-01T09:29:56;96856.63;;;13.34;65.00
77823;BME280;67013;49.730;17.292;2023-04-01T09:32:58;96862.98;;;13.39;65.28
77823;BME280;67013;49.730;17.292;2023-04-01T09:35:42;96860.63;;;13.49;64.64
77823;BME280;67013;49.730;17.292;2023-04-01T09:38:23;96864.50;;;13.56;64.73
77823;BME280;67013;49.730;17.292;2023-04-01T09:40:58;96858.58;;;13.64;64.86
77823;BME280;67013;49.730;17.292;2023-04-01T09:43:42;96860.15;;;13.67;64.32
77823;BME280;67013;49.730;17.292;2023-04-01T09:46:37;96861.39;;;13.69;64.28
77823;BME280;67013;49.730;17.292;2023-04-01T09:49:42;96869.36;;;13.65;64.32
77823;BME280;67013;49.730;17.292;2023-04-01T09:52:23;96873.28;;;13.59;63.98
77823;BME280;67013;49.730;17.292;2023-04-01T09:55:18;96875.25;;;13.54;63.86
77823;BME280;67013;49.730;17.292;2023-04-01T09:58:21;96875.92;;;13.48;63.62
77823;BME280;67013;49.730;17.292;2023-04-01T10:01:19;96874.84;;;13.43;63.97
77823;BME280;67013;49.730;17.292;2023-04-01T10:07:24;96877.76;;;13.38;64.12
77823;BME280;67013;49.730;17.292;2023-04-01T10:10:34;96879.55;;;13.41;64.22
77823;BME280;67013;49.730;17.292;2023-04-01T10:13:45;96874.98;;;13.44;63.63
77823;BME280;67013;49.730;17.292;2023-04-01T10:16:35;96877.86;;;13.43;63.20
77823;BME280;67013;49.730;17.292;2023-04-01T10:22:20;96883.29;;;13.41;63.62
77823;BME280;67013;49.730;17.292;2023-04-01T10:25:12;96882.94;;;13.41;63.89
77823;BME280;67013;49.730;17.292;2023-04-01T10:28:02;96882.38;;;13.41;63.68
77823;BME280;67013;49.730;17.292;2023-04-01T10:31:10;96884.30;;;13.41;63.38
77823;BME280;67013;49.730;17.292;2023-04-01T10:37:00;96886.91;;;13.33;62.76
77823;BME280;67013;49.730;17.292;2023-04-01T10:39:44;96886.06;;;13.35;63.42
77823;BME280;67013;49.730;17.292;2023-04-01T10:45:42;96891.34;;;13.31;63.28
77823;BME280;67013;49.730;17.292;2023-04-01T10:51:50;96886.04;;;13.20;63.58
77823;BME280;67013;49.730;17.292;2023-04-01T10:54:44;96887.58;;;13.18;63.87
77823;BME280;67013;49.730;17.292;2023-04-01T10:57:42;96893.42;;;13.13;63.57
77823;BME280;67013;49.730;17.292;2023-04-01T11:00:34;96894.63;;;13.08;63.38
77823;BME280;67013;49.730;17.292;2023-04-01T11:15:46;96896.48;;;13.36;62.57
77823;BME280;67013;49.730;17.292;2023-04-01T11:19:04;96902.28;;;13.40;62.94
77823;BME280;67013;49.730;17.292;2023-04-01T11:21:57;96903.69;;;13.41;63.26
77823;BME280;67013;49.730;17.292;2023-04-01T11:24:53;96900.84;;;13.42;63.25
77823;BME280;67013;49.730;17.292;2023-04-01T11:27:41;96899.42;;;13.45;63.00
77823;BME280;67013;49.730;17.292;2023-04-01T11:30:24;96902.84;;;13.46;62.33
77823;BME280;67013;49.730;17.292;2023-04-01T11:33:01;96903.20;;;13.44;62.36
77823;BME280;67013;49.730;17.292;2023-04-01T11:35:43;96907.23;;;13.44;62.27
77823;BME280;67013;49.730;17.292;2023-04-01T11:38:24;96904.97;;;13.48;62.61
77823;BME280;67013;49.730;17.292;2023-04-01T11:41:10;96910.30;;;13.48;62.13
77823;BME280;67013;49.730;17.292;2023-04-01T11:43:52;96910.27;;;13.50;62.13
77823;BME280;67013;49.730;17.292;2023-04-01T11:46:30;96913.82;;;13.52;62.40
77823;BME280;67013;49.730;17.292;2023-04-01T11:49:21;96913.23;;;13.55;62.47
77823;BME280;67013;49.730;17.292;2023-04-01T11:52:06;96915.22;;;13.67;62.72
77823;BME280;67013;49.730;17.292;2023-04-01T11:54:58;96915.37;;;13.88;62.55
77823;BME280;67013;49.730;17.292;2023-04-01T11:57:53;96912.15;;;14.21;62.68
77823;BME280;67013;49.730;17.292;2023-04-01T12:00:46;96910.66;;;14.58;62.11
77823;BME280;67013;49.730;17.292;2023-04-01T12:03:46;96911.67;;;14.82;61.13
77823;BME280;67013;49.730;17.292;2023-04-01T12:06:23;96913.88;;;14.83;60.33
77823;BME280;67013;49.730;17.292;2023-04-01T12:09:03;96919.16;;;14.74;60.12
77823;BME280;67013;49.730;17.292;2023-04-01T12:11:41;96920.06;;;14.71;60.44
77823;BME280;67013;49.730;17.292;2023-04-01T12:14:20;96919.11;;;14.70;60.54
77823;BME280;67013;49.730;17.292;2023-04-01T12:17:04;96918.45;;;14.71;60.51
77823;BME280;67013;49.730;17.292;2023-04-01T12:19:44;96917.79;;;14.74;60.31
77823;BME280;67013;49.730;17.292;2023-04-01T12:22:37;96921.12;;;14.77;60.28
77823;BME280;67013;49.730;17.292;2023-04-01T12:25:24;96921.83;;;14.85;60.49
77823;BME280;67013;49.730;17.292;2023-04-01T12:28:08;96926.80;;;14.94;60.12
77823;BME280;67013;49.730;17.292;2023-04-01T12:30:52;96926.67;;;15.07;59.32
77823;BME280;67013;49.730;17.292;2023-04-01T12:33:46;96928.94;;;15.25;59.07
77823;BME280;67013;49.730;17.292;2023-04-01T12:36:50;96929.43;;;15.43;58.24
77823;BME280;67013;49.730;17.292;2023-04-01T12:39:36;96922.83;;;15.55;58.07
77823;BME280;67013;49.730;17.292;2023-04-01T12:42:16;96924.10;;;15.67;57.92
77823;BME280;67013;49.730;17.292;2023-04-01T12:44:59;96921.73;;;15.87;57.82
77823;BME280;67013;49.730;17.292;2023-04-01T12:47:55;96918.61;;;16.11;57.71
77823;BME280;67013;49.730;17.292;2023-04-01T12:50:47;96917.45;;;16.45;57.66
77823;BME280;67013;49.730;17.292;2023-04-01T12:53:35;96913.66;;;16.71;56.13
77823;BME280;67013;49.730;17.292;2023-04-01T12:56:17;96914.99;;;16.85;55.84
77823;BME280;67013;49.730;17.292;2023-04-01T13:02:11;96918.70;;;17.12;55.49
77823;BME280;67013;49.730;17.292;2023-04-01T13:05:10;96925.74;;;17.18;54.89
77823;BME280;67013;49.730;17.292;2023-04-01T13:07:59;96923.96;;;17.18;54.52
77823;BME280;67013;49.730;17.292;2023-04-01T13:10:50;96923.74;;;17.21;54.18
77823;BME280;67013;49.730;17.292;2023-04-01T13:13:48;96922.14;;;17.19;53.81
77823;BME280;67013;49.730;17.292;2023-04-01T13:16:22;96925.87;;;17.11;54.24
77823;BME280;67013;49.730;17.292;2023-04-01T13:18:59;96923.58;;;17.04;53.91
77823;BME280;67013;49.730;17.292;2023-04-01T13:21:41;96923.92;;;17.02;54.16
77823;BME280;67013;49.730;17.292;2023-04-01T13:24:27;96925.13;;;17.02;53.69
77823;BME280;67013;49.730;17.292;2023-04-01T13:27:05;96926.98;;;16.93;53.33
77823;BME280;67013;49.730;17.292;2023-04-01T13:29:42;96926.48;;;16.79;53.75
77823;BME280;67013;49.730;17.292;2023-04-01T13:32:34;96927.70;;;16.63;54.04
77823;BME280;67013;49.730;17.292;2023-04-01T13:35:28;96925.36;;;16.46;53.81
77823;BME280;67013;49.730;17.292;2023-04-01T13:38:29;96925.27;;;16.35;53.99
77823;BME280;67013;49.730;17.292;2023-04-01T13:41:04;96925.34;;;16.35;54.07
77823;BME280;67013;49.730;17.292;2023-04-01T13:43:39;96926.35;;;16.41;54.21
77823;BME280;67013;49.730;17.292;2023-04-01T13:46:25;96925.98;;;16.50;54.85
77823;BME280;67013;49.730;17.292;2023-04-01T13:49:38;96928.83;;;16.61;54.29
77823;BME280;67013;49.730;17.292;2023-04-01T13:52:26;96922.15;;;16.73;53.84
77823;BME280;67013;49.730;17.292;2023-04-01T13:55:26;96923.23;;;16.81;53.59
77823;BME280;67013;49.730;17.292;2023-04-01T13:58:35;96921.65;;;16.90;53.01
77823;BME280;67013;49.730;17.292;2023-04-01T14:01:15;96919.02;;;16.96;52.18
77823;BME280;67013;49.730;17.292;2023-04-01T14:04:19;96920.99;;;17.01;52.43
77823;BME280;67013;49.730;17.292;2023-04-01T14:07:00;96921.48;;;17.06;52.49
77823;BME280;67013;49.730;17.292;2023-04-01T14:12:40;96924.59;;;17.22;52.25
77823;BME280;67013;49.730;17.292;2023-04-01T14:26:29;96924.88;;;17.49;51.13
77823;BME280;67013;49.730;17.292;2023-04-01T14:29:17;96926.92;;;17.28;51.42
77823;BME280;67013;49.730;17.292;2023-04-01T14:32:02;96940.52;;;17.09;51.77
77823;BME280;67013;49.730;17.292;2023-04-01T14:34:48;96946.58;;;16.84;52.30
77823;BME280;67013;49.730;17.292;2023-04-01T14:37:35;96958.65;;;16.49;52.54
77823;BME280;67013;49.730;17.292;2023-04-01T14:40:30;96968.27;;;16.13;53.64
77823;BME280;67013;49.730;17.292;2023-04-01T14:43:22;96971.32;;;15.78;55.08
77823;BME280;67013;49.730;17.292;2023-04-01T14:46:10;96979.94;;;15.48;56.08
77823;BME280;67013;49.730;17.292;2023-04-01T14:48:53;96979.86;;;15.21;56.65
77823;BME280;67013;49.730;17.292;2023-04-01T14:51:31;96980.92;;;14.96;57.08
77823;BME280;67013;49.730;17.292;2023-04-01T14:54:08;96979.71;;;14.79;57.91
77823;BME280;67013;49.730;17.292;2023-04-01T14:56:42;96975.95;;;14.63;58.04
77823;BME280;67013;49.730;17.292;2023-04-01T14:59:17;96981.43;;;14.48;59.02